Archiv-/Tagesdaten

--Timestamp---	Temp	Chill	HIndex	Humid	Dewpt	Wind	HiWind	WindDir	Rain	Barom	Solar	ET	UV
--------------	----	-----	------	-----	-----	----	------	-------	----	-----	-----	--	--
20080222 00:05	6.1	6.1	6.1	85	3.8	5	10	247	0.00	1027.298	0	0.000	0
20080222 00:10	6.1	6.1	6.1	85	3.8	5	10	247	0.00	1027.298	0	0.000	0
20080222 00:15	6.1	6.1	6.1	85	3.7	5	11	225	0.00	1027.298	0	0.000	0
20080222 00:20	6.0	6.0	6.0	85	3.7	5	11	225	0.00	1027.332	0	0.000	0
20080222 00:25	6.0	6.0	6.0	85	3.7	5	14	247	0.00	1027.332	0	0.000	0
20080222 00:30	6.0	6.0	6.0	85	3.7	5	16	270	0.00	1027.399	0	0.000	0
20080222 00:35	6.1	4.8	6.1	85	3.7	6	11	247	0.00	1027.467	0	0.000	0
20080222 00:40	6.2	4.9	6.2	85	3.8	6	11	225	0.00	1027.399	0	0.000	0
20080222 00:45	6.2	6.2	6.2	85	3.8	5	8	247	0.00	1027.399	0	0.000	0
20080222 00:50	6.1	6.1	6.1	85	3.8	3	8	247	0.00	1027.332	0	0.000	0
20080222 00:55	6.1	6.1	6.1	84	3.6	5	14	247	0.00	1027.399	0	0.000	0
20080222 01:00	6.1	6.1	6.1	84	3.6	3	8	247	0.00	1027.332	0	0.020	0
20080222 01:05	6.1	4.8	6.1	84	3.6	6	14	225	0.00	1027.399	0	0.000	0
20080222 01:10	6.1	6.1	6.1	84	3.6	5	10	247	0.00	1027.365	0	0.000	0
20080222 01:15	6.1	4.9	6.1	84	3.6	6	16	247	0.00	1027.298	0	0.000	0
20080222 01:20	6.2	4.6	6.2	83	3.6	8	16	247	0.00	1027.332	0	0.000	0
20080222 01:25	6.3	4.6	6.3	83	3.6	8	21	247	0.00	1027.230	0	0.000	0
20080222 01:30	6.3	4.3	6.3	82	3.5	10	23	247	0.00	1027.230	0	0.000	0
20080222 01:35	6.3	4.3	6.3	82	3.5	10	18	247	0.00	1027.162	0	0.000	0
20080222 01:40	6.4	4.8	6.4	82	3.5	8	16	247	0.00	1027.162	0	0.000	0
20080222 01:45	6.4	4.4	6.4	82	3.5	10	21	247	0.00	1027.230	0	0.000	0
20080222 01:50	6.4	4.4	6.4	82	3.5	10	24	247	0.00	1027.230	0	0.000	0
20080222 01:55	6.4	4.5	6.4	82	3.6	10	23	247	0.00	1027.230	0	0.000	0
20080222 02:00	6.4	4.5	6.4	82	3.6	10	18	247	0.00	1027.230	0	0.020	0
20080222 02:05	6.5	4.5	6.5	82	3.7	10	19	247	0.00	1027.264	0	0.000	0
20080222 02:10	6.4	4.8	6.4	82	3.6	8	16	247	0.00	1027.230	0	0.000	0
20080222 02:15	6.5	4.5	6.5	82	3.7	10	21	247	0.00	1027.230	0	0.000	0
20080222 02:20	6.6	4.3	6.6	81	3.5	11	26	247	0.00	1027.298	0	0.000	0
20080222 02:25	6.6	4.6	6.6	81	3.5	10	26	247	0.00	1027.332	0	0.000	0
20080222 02:30	6.6	4.6	6.6	81	3.5	10	19	247	0.00	1027.298	0	0.000	0
20080222 02:35	6.6	5.0	6.6	81	3.5	8	23	247	0.00	1027.298	0	0.000	0
20080222 02:40	6.6	4.7	6.6	81	3.6	10	19	247	0.00	1027.264	0	0.000	0
20080222 02:45	6.6	4.7	6.6	81	3.6	10	23	247	0.00	1027.196	0	0.000	0
20080222 02:50	6.7	4.7	6.7	80	3.5	10	19	247	0.00	1027.162	0	0.000	0
20080222 02:55	6.7	4.8	6.7	80	3.5	10	19	247	0.00	1027.230	0	0.000	0
20080222 03:00	6.7	4.8	6.7	80	3.5	10	19	247	0.00	1027.162	0	0.020	0
20080222 03:05	6.7	4.8	6.7	80	3.5	10	21	247	0.00	1027.095	0	0.000	0
20080222 03:10	6.7	4.8	6.7	80	3.5	10	19	225	0.00	1027.095	0	0.000	0
20080222 03:15	6.7	5.2	6.7	80	3.5	8	18	247	0.00	1027.061	0	0.000	0
20080222 03:20	6.7	4.8	6.7	79	3.3	10	21	247	0.00	1027.095	0	0.000	0
20080222 03:25	6.8	4.6	6.8	79	3.4	11	24	247	0.00	1027.196	0	0.000	0
20080222 03:30	6.8	4.9	6.8	80	3.6	10	16	247	0.00	1027.162	0	0.000	0
20080222 03:35	6.8	4.9	6.8	80	3.6	10	18	247	0.00	1027.162	0	0.000	0
20080222 03:40	6.7	5.1	6.7	80	3.5	8	19	247	0.00	1027.162	0	0.000	0
20080222 03:45	6.7	5.1	6.7	80	3.5	8	19	247	0.00	1027.196	0	0.000	0
20080222 03:50	6.6	5.0	6.6	81	3.6	8	19	247	0.00	1027.230	0	0.000	0
20080222 03:55	6.6	5.4	6.6	81	3.5	6	13	247	0.00	1027.230	0	0.000	0
20080222 04:00	6.5	5.3	6.5	82	3.7	6	11	247	0.00	1027.230	0	0.020	0
20080222 04:05	6.4	5.2	6.4	82	3.5	6	14	247	0.00	1027.264	0	0.000	0
20080222 04:10	6.4	4.8	6.4	82	3.5	8	16	270	0.00	1027.467	0	0.000	0
20080222 04:15	6.3	5.1	6.3	83	3.7	6	14	247	0.00	1027.535	0	0.000	0
20080222 04:20	6.3	5.1	6.3	83	3.6	6	14	247	0.00	1027.467	0	0.000	0
20080222 04:25	6.2	5.0	6.2	84	3.7	6	11	247	0.00	1027.535	0	0.000	0
20080222 04:30	6.2	6.2	6.2	84	3.7	5	14	247	0.00	1027.501	0	0.000	0
20080222 04:35	6.1	4.9	6.1	84	3.6	6	11	247	0.00	1027.603	0	0.000	0
20080222 04:40	6.1	6.1	6.1	84	3.6	5	10	247	0.00	1027.569	0	0.000	0
20080222 04:45	6.1	4.4	6.1	84	3.6	8	16	225	0.00	1027.603	0	0.000	0
20080222 04:50	6.1	4.9	6.1	84	3.6	6	13	247	0.00	1027.569	0	0.000	0
20080222 04:55	6.1	4.4	6.1	84	3.6	8	18	247	0.00	1027.501	0	0.000	0
20080222 05:00	6.1	4.9	6.1	84	3.6	6	16	247	0.00	1027.535	0	0.020	0
20080222 05:05	6.1	4.9	6.1	84	3.6	6	19	247	0.00	1027.670	0	0.000	0
20080222 05:10	6.1	4.8	6.1	84	3.6	6	14	270	0.20	1027.670	0	0.000	0
20080222 05:15	6.1	4.8	6.1	84	3.6	6	13	247	0.00	1027.670	0	0.000	0
20080222 05:20	6.1	4.8	6.1	85	3.7	6	13	247	0.00	1027.670	0	0.000	0
20080222 05:25	6.0	4.8	6.0	85	3.7	6	14	247	0.00	1027.670	0	0.000	0
20080222 05:30	6.0	4.8	6.0	85	3.7	6	11	247	0.00	1027.670	0	0.000	0
20080222 05:35	5.9	4.7	5.9	85	3.6	6	14	247	0.00	1027.670	0	0.000	0
20080222 05:40	6.0	4.8	6.0	85	3.7	6	13	247	0.00	1027.670	0	0.000	0
20080222 05:45	6.0	4.8	6.0	85	3.7	6	11	247	0.00	1027.704	0	0.000	0
20080222 05:50	6.0	6.0	6.0	85	3.7	5	10	247	0.00	1027.670	0	0.000	0
20080222 05:55	6.0	6.0	6.0	85	3.7	5	11	247	0.00	1027.704	0	0.000	0
20080222 06:00	6.0	4.8	6.0	85	3.7	6	11	247	0.00	1027.704	0	0.020	0
20080222 06:05	6.1	6.1	6.1	85	3.7	5	11	247	0.00	1027.738	0	0.000	0
20080222 06:10	6.1	6.1	6.1	84	3.6	5	8	247	0.00	1027.738	0	0.000	0
20080222 06:15	6.2	6.2	6.2	84	3.7	5	11	247	0.00	1027.806	0	0.000	0
20080222 06:20	6.2	6.2	6.2	84	3.7	5	13	247	0.00	1027.738	0	0.000	0
20080222 06:25	6.2	5.0	6.2	84	3.7	6	11	247	0.00	1027.772	0	0.000	0
20080222 06:30	6.3	5.1	6.3	83	3.6	6	16	247	0.00	1027.738	0	0.000	0
20080222 06:35	6.3	5.1	6.3	84	3.8	6	11	247	0.00	1027.738	0	0.000	0
20080222 06:40	6.3	5.1	6.3	83	3.7	6	16	247	0.00	1027.738	0	0.000	0
20080222 06:45	6.4	5.2	6.4	83	3.7	6	11	247	0.00	1027.772	0	0.000	0
20080222 06:50	6.4	5.3	6.4	83	3.8	6	13	247	0.00	1027.873	0	0.000	0
20080222 06:55	6.5	6.5	6.5	83	3.8	5	16	247	0.00	1027.907	0	0.000	0
20080222 07:00	6.5	5.3	6.5	83	3.8	6	14	247	0.00	1027.840	0	0.020	0
20080222 07:05	6.5	5.3	6.5	83	3.8	6	14	225	0.00	1027.907	0	0.000	0
20080222 07:10	6.5	5.3	6.5	83	3.8	6	18	247	0.00	1027.873	0	0.000	0
20080222 07:15	6.5	5.3	6.5	83	3.8	6	16	247	0.00	1027.907	0	0.000	0
20080222 07:20	6.5	5.3	6.5	83	3.8	6	13	247	0.00	1027.907	0	0.000	0
20080222 07:25	6.5	5.3	6.5	83	3.8	6	16	247	0.00	1027.941	0	0.000	0
20080222 07:30	6.6	5.5	6.6	83	3.9	6	14	247	0.00	1027.941	0	0.000	0
20080222 07:35	6.7	5.5	6.7	82	3.8	6	11	247	0.00	1028.009	0	0.000	0
20080222 07:40	6.7	5.6	6.7	82	3.9	6	18	247	0.00	1028.043	2	0.000	0
20080222 07:45	6.7	6.7	6.7	82	3.9	5	11	247	0.00	1028.043	5	0.000	0
20080222 07:50	6.8	6.8	6.8	82	3.9	5	13	225	0.00	1028.043	7	0.000	0
20080222 07:55	6.8	5.7	6.8	82	3.9	6	14	247	0.00	1028.043	9	0.000	0
20080222 08:00	6.8	6.8	6.8	82	4.0	5	10	247	0.00	1028.009	10	0.020	0
20080222 08:05	6.9	6.9	6.9	81	3.9	5	11	225	0.00	1028.043	12	0.000	0
20080222 08:10	6.9	5.8	6.9	81	3.9	6	14	247	0.00	1027.975	13	0.000	0
20080222 08:15	6.9	5.4	6.9	81	3.9	8	14	247	0.00	1028.009	14	0.000	0
20080222 08:20	7.0	5.5	7.0	81	4.0	8	21	247	0.00	1028.077	11	0.000	0
20080222 08:25	7.1	5.6	7.1	81	4.0	8	21	247	0.00	1028.144	11	0.000	0
20080222 08:30	7.1	6.0	7.1	81	4.0	6	18	247	0.00	1028.144	12	0.000	0
20080222 08:35	7.1	6.0	7.1	80	3.9	6	19	247	0.00	1028.077	15	0.000	0
20080222 08:40	7.2	5.7	7.2	80	3.9	8	19	247	0.00	1028.077	19	0.000	0
20080222 08:45	7.2	5.7	7.2	80	4.0	8	18	247	0.00	1028.043	25	0.000	0
20080222 08:50	7.3	5.8	7.3	79	3.9	8	21	247	0.00	1027.975	34	0.000	0
20080222 08:55	7.4	5.9	7.4	79	4.0	8	19	247	0.00	1028.009	44	0.000	0
20080222 09:00	7.4	5.7	7.4	79	4.0	10	23	225	0.00	1028.043	48	0.020	0
20080222 09:05	7.5	6.1	7.5	78	3.9	8	19	247	0.00	1028.077	48	0.000	0
20080222 09:10	7.6	6.2	7.6	78	4.0	8	16	247	0.00	1028.144	52	0.000	0
20080222 09:15	7.7	6.7	7.7	78	4.1	6	11	247	0.00	1028.144	47	0.000	0
20080222 09:20	7.7	6.7	7.7	78	4.1	6	16	247	0.00	1028.178	42	0.000	0
20080222 09:25	7.7	6.3	7.7	77	3.9	8	18	247	0.00	1028.212	42	0.000	0
20080222 09:30	7.8	6.4	7.8	77	4.0	8	16	247	0.00	1028.246	41	0.000	0
20080222 09:35	7.8	6.4	7.8	78	4.2	8	16	247	0.00	1028.280	55	0.000	0
20080222 09:40	7.8	6.9	7.8	78	4.2	6	18	247	0.00	1028.280	85	0.000	0
20080222 09:45	7.9	6.6	7.9	77	4.2	8	14	247	0.00	1028.212	123	0.000	1
20080222 09:50	8.1	6.8	8.1	77	4.3	8	14	247	0.00	1028.314	144	0.000	1
20080222 09:55	8.3	7.0	8.3	76	4.3	8	18	225	0.00	1028.280	124	0.000	1
20080222 10:00	8.4	8.4	8.4	75	4.3	5	11	247	0.00	1028.246	129	0.040	1
20080222 10:05	8.6	7.8	8.6	75	4.4	6	16	247	0.00	1028.043	137	0.000	1
20080222 10:10	8.7	7.5	8.7	73	4.2	8	19	247	0.00	1028.043	127	0.000	1
20080222 10:15	8.8	8.0	8.8	74	4.5	6	14	247	0.00	1028.043	136	0.000	1
20080222 10:20	8.9	8.2	8.9	72	4.2	6	14	247	0.00	1027.975	147	0.000	1
20080222 10:25	9.1	7.9	9.1	72	4.3	8	27	247	0.00	1027.975	174	0.000	1
20080222 10:30	9.2	8.1	9.2	72	4.4	8	21	247	0.00	1027.907	189	0.000	1
20080222 10:35	9.4	8.3	9.4	72	4.6	8	18	247	0.00	1027.907	191	0.000	1
20080222 10:40	9.6	8.9	9.6	71	4.6	6	16	247	0.00	1027.907	199	0.000	1
20080222 10:45	9.7	8.6	9.7	70	4.5	8	16	247	0.00	1027.941	199	0.000	2
20080222 10:50	9.8	8.8	9.8	71	4.8	8	18	247	0.00	1027.975	193	0.000	2
20080222 10:55	9.9	8.6	9.9	68	4.3	10	24	247	0.00	1027.975	202	0.000	2
20080222 11:00	10.1	10.1	10.1	67	4.2	11	23	247	0.00	1027.975	271	0.080	2
20080222 11:05	10.2	10.2	10.2	67	4.3	13	23	247	0.00	1027.975	250	0.000	2
20080222 11:10	10.3	10.3	10.3	68	4.7	10	18	247	0.00	1027.907	252	0.000	2
20080222 11:15	10.4	10.4	10.4	67	4.6	8	18	247	0.00	1027.941	243	0.000	2
20080222 11:20	10.6	10.6	10.6	67	4.7	8	14	247	0.00	1027.975	208	0.000	2
20080222 11:25	10.6	10.6	10.6	66	4.5	10	23	247	0.00	1027.941	211	0.000	2
20080222 11:30	10.6	10.6	10.6	65	4.3	11	23	247	0.00	1027.873	216	0.000	2
20080222 11:35	10.6	10.6	10.6	65	4.3	10	19	247	0.00	1027.806	214	0.000	2
20080222 11:40	10.8	10.8	10.8	65	4.5	8	18	247	0.00	1027.772	198	0.000	1
20080222 11:45	10.8	10.8	10.8	64	4.3	8	18	247	0.00	1027.704	202	0.000	2
20080222 11:50	10.9	10.9	10.9	64	4.3	8	21	247	0.00	1027.772	199	0.000	1
20080222 11:55	10.9	10.9	10.9	62	3.9	10	21	247	0.00	1027.704	189	0.000	1
20080222 12:00	10.9	10.9	10.9	63	4.1	10	18	247	0.00	1027.636	194	0.100	2
20080222 12:05	11.0	11.0	11.0	61	3.8	10	24	247	0.00	1027.738	220	0.000	2
20080222 12:10	11.1	11.1	11.1	62	4.1	13	21	247	0.00	1027.704	225	0.000	2
20080222 12:15	11.3	11.3	11.3	61	4.0	11	24	247	0.00	1027.569	224	0.000	2
20080222 12:20	11.4	11.4	11.4	61	4.1	11	21	270	0.00	1027.467	249	0.000	2
20080222 12:25	11.5	11.5	11.5	61	4.2	11	21	247	0.00	1027.365	243	0.000	2
20080222 12:30	11.5	11.5	11.5	60	4.0	14	26	270	0.00	1027.332	268	0.000	2
20080222 12:35	11.6	11.6	11.6	59	3.8	13	26	247	0.00	1027.230	270	0.000	2
20080222 12:40	11.6	11.6	11.6	61	4.3	11	23	247	0.00	1027.264	285	0.000	2
20080222 12:45	11.6	11.6	11.6	60	4.1	13	23	247	0.00	1027.264	257	0.000	2
20080222 12:50	11.6	11.6	11.6	60	4.1	13	26	247	0.00	1027.230	267	0.000	2
20080222 12:55	11.6	11.6	11.6	60	4.1	13	27	247	0.00	1027.128	269	0.000	2
20080222 13:00	11.6	11.6	11.6	60	4.1	10	23	247	0.00	1027.061	282	0.140	2
20080222 13:05	11.8	11.8	11.8	60	4.3	11	21	247	0.00	1027.061	287	0.000	2
20080222 13:10	11.9	11.9	11.9	59	4.1	10	19	247	0.00	1026.824	312	0.000	2
20080222 13:15	12.0	12.0	12.0	59	4.2	11	24	247	0.00	1026.722	286	0.000	2
20080222 13:20	12.0	12.0	12.0	59	4.2	11	23	247	0.00	1026.688	189	0.000	2
20080222 13:25	12.2	12.2	12.2	58	4.1	11	23	270	0.00	1026.451	375	0.000	2
20080222 13:30	12.7	12.7	12.7	58	4.6	13	27	270	0.00	1026.417	460	0.000	2
20080222 13:35	13.0	13.0	13.0	56	4.4	10	21	247	0.00	1026.350	460	0.000	2
20080222 13:40	13.3	13.3	13.3	55	4.4	10	21	247	0.00	1026.180	461	0.000	2
20080222 13:45	13.4	13.4	13.4	54	4.3	11	24	270	0.00	1026.214	457	0.000	2
20080222 13:50	13.2	13.2	13.2	54	4.1	13	27	270	0.00	1026.248	461	0.000	2
20080222 13:55	13.0	13.0	13.0	55	4.2	14	26	247	0.00	1026.316	452	0.000	2
20080222 14:00	13.2	13.2	13.2	54	4.1	13	27	247	0.00	1026.146	461	0.200	2
20080222 14:05	13.3	13.3	13.3	55	4.5	13	24	270	0.00	1026.011	406	0.000	2
20080222 14:10	13.2	13.2	13.2	54	4.1	14	29	247	0.00	1026.011	403	0.000	2
20080222 14:15	13.2	13.2	13.2	55	4.3	14	24	270	0.00	1025.909	397	0.000	2
20080222 14:20	13.1	13.1	13.1	55	4.3	13	26	270	0.00	1025.808	387	0.000	2
20080222 14:25	12.9	12.9	12.9	55	4.1	13	26	247	0.00	1025.875	265	0.000	2
20080222 14:30	12.8	12.8	12.8	56	4.3	13	26	247	0.00	1025.808	231	0.000	2
20080222 14:35	12.8	12.8	12.8	56	4.2	14	29	247	0.00	1025.808	276	0.000	1
20080222 14:40	12.8	12.8	12.8	56	4.3	13	26	247	0.00	1025.672	306	0.000	1
20080222 14:45	13.0	13.0	13.0	56	4.4	11	26	270	0.00	1025.638	307	0.000	1
20080222 14:50	13.0	13.0	13.0	56	4.4	16	27	270	0.00	1025.571	281	0.000	1
20080222 14:55	13.0	13.0	13.0	56	4.4	14	32	270	0.00	1025.537	258	0.000	1
20080222 15:00	13.0	13.0	13.0	57	4.7	13	26	270	0.00	1025.537	222	0.180	1
20080222 15:05	13.0	13.0	13.0	57	4.7	11	23	270	0.00	1025.571	191	0.000	1
20080222 15:10	13.0	13.0	13.0	58	4.9	11	21	270	0.00	1025.537	210	0.000	1
20080222 15:15	12.9	12.9	12.9	57	4.6	13	24	247	0.00	1025.503	185	0.000	1
20080222 15:20	12.8	12.8	12.8	56	4.3	14	27	247	0.00	1025.537	132	0.000	1
20080222 15:25	12.7	12.7	12.7	57	4.4	11	19	247	0.00	1025.503	124	0.000	1
20080222 15:30	12.7	12.7	12.7	58	4.7	6	14	247	0.00	1025.401	135	0.000	1
20080222 15:35	12.7	12.7	12.7	58	4.7	11	23	247	0.00	1025.401	116	0.000	1
20080222 15:40	12.6	12.6	12.6	58	4.6	14	26	270	0.00	1025.401	105	0.000	1
20080222 15:45	12.6	12.6	12.6	58	4.6	13	19	270	0.00	1025.469	102	0.000	1
20080222 15:50	12.6	12.6	12.6	58	4.6	13	23	270	0.00	1025.469	88	0.000	0
20080222 15:55	12.4	12.4	12.4	58	4.4	13	26	270	0.00	1025.469	69	0.000	0
20080222 16:00	12.2	12.2	12.2	58	4.1	11	19	247	0.00	1025.435	55	0.100	0
20080222 16:05	12.0	12.0	12.0	59	4.2	10	18	247	0.00	1025.604	61	0.000	0
20080222 16:10	11.9	11.9	11.9	61	4.6	10	19	270	0.00	1025.503	64	0.000	0
20080222 16:15	11.9	11.9	11.9	60	4.4	11	21	270	0.00	1025.503	68	0.000	0
20080222 16:20	12.0	12.0	12.0	60	4.5	11	23	270	0.00	1025.367	58	0.000	0
20080222 16:25	12.1	12.1	12.1	60	4.5	11	21	270	0.00	1025.367	63	0.000	0
20080222 16:30	11.9	11.9	11.9	60	4.4	13	26	270	0.00	1025.367	54	0.000	0
20080222 16:35	11.8	11.8	11.8	60	4.3	11	23	247	0.00	1025.266	45	0.000	0
20080222 16:40	11.7	11.7	11.7	61	4.4	11	21	270	0.00	1025.300	37	0.000	0
20080222 16:45	11.5	11.5	11.5	62	4.5	10	19	247	0.00	1025.334	33	0.000	0
20080222 16:50	11.3	11.3	11.3	62	4.3	8	16	247	0.00	1025.469	33	0.000	0
20080222 16:55	11.2	11.2	11.2	62	4.2	8	18	247	0.00	1025.503	38	0.000	0
20080222 17:00	11.2	11.2	11.2	62	4.2	10	18	247	0.00	1025.435	35	0.060	0
20080222 17:05	11.1	11.1	11.1	63	4.3	8	16	247	0.00	1025.334	30	0.000	0
20080222 17:10	11.0	11.0	11.0	63	4.2	10	18	247	0.00	1025.334	26	0.000	0
20080222 17:15	10.9	10.9	10.9	63	4.2	8	19	247	0.00	1025.300	22	0.000	0
20080222 17:20	10.8	10.8	10.8	64	4.2	8	19	247	0.00	1025.334	19	0.000	0
20080222 17:25	10.7	10.7	10.7	64	4.1	10	18	247	0.00	1025.232	16	0.000	0
20080222 17:30	10.5	10.5	10.5	64	4.0	8	16	247	0.00	1025.334	12	0.000	0
20080222 17:35	10.3	10.3	10.3	65	4.0	6	14	247	0.00	1025.469	8	0.000	0
20080222 17:40	10.2	10.2	10.2	65	3.9	5	10	247	0.00	1025.571	3	0.000	0
20080222 17:45	10.0	10.0	10.0	66	3.9	5	10	270	0.00	1025.638	0	0.000	0
20080222 17:50	9.8	9.8	9.8	67	4.0	5	10	270	0.00	1025.672	0	0.000	0
20080222 17:55	9.7	9.7	9.7	68	4.0	5	10	270	0.00	1025.842	0	0.000	0
20080222 18:00	9.5	8.8	9.5	68	3.9	6	11	270	0.00	1025.842	0	0.020	0
20080222 18:05	9.5	8.4	9.5	68	3.9	8	18	247	0.00	1025.774	0	0.000	0
20080222 18:10	9.6	8.2	9.6	68	3.9	10	19	247	0.00	1025.740	0	0.000	0
20080222 18:15	9.6	8.5	9.6	68	3.9	8	16	247	0.00	1025.808	0	0.000	0
20080222 18:20	9.6	8.9	9.6	68	3.9	6	16	270	0.00	1025.875	0	0.000	0
20080222 18:25	9.6	8.5	9.6	68	3.9	8	18	247	0.00	1025.842	0	0.000	0
20080222 18:30	9.5	8.4	9.5	68	3.9	8	16	247	0.00	1025.909	0	0.000	0
20080222 18:35	9.4	8.3	9.4	68	3.8	8	16	247	0.00	1025.977	0	0.000	0
20080222 18:40	9.4	8.0	9.4	68	3.8	10	19	247	0.00	1026.011	0	0.000	0
20080222 18:45	9.4	8.0	9.4	68	3.8	10	16	247	0.00	1026.011	0	0.000	0
20080222 18:50	9.3	8.2	9.3	68	3.7	8	18	270	0.00	1025.943	0	0.000	0
20080222 18:55	9.3	7.9	9.3	68	3.7	10	18	247	0.00	1025.943	0	0.000	0
20080222 19:00	9.3	8.2	9.3	68	3.7	8	16	247	0.00	1026.045	0	0.040	0
20080222 19:05	9.3	7.6	9.3	68	3.7	11	23	247	0.00	1026.011	0	0.000	0
20080222 19:10	9.4	8.0	9.4	68	3.8	10	16	247	0.00	1025.977	0	0.000	0
20080222 19:15	9.3	7.9	9.3	68	3.7	10	19	247	0.00	1026.011	0	0.000	0
20080222 19:20	9.3	7.8	9.3	68	3.7	10	19	247	0.00	1026.113	0	0.000	0
20080222 19:25	9.3	7.8	9.3	68	3.7	10	24	247	0.00	1026.248	0	0.000	0
20080222 19:30	9.2	7.8	9.2	68	3.6	10	23	247	0.00	1026.316	0	0.000	0
20080222 19:35	9.1	8.0	9.1	68	3.5	8	16	247	0.00	1026.350	0	0.000	0
20080222 19:40	8.9	7.8	8.9	68	3.4	8	16	247	0.00	1026.417	0	0.000	0
20080222 19:45	8.9	7.7	8.9	69	3.5	8	16	247	0.00	1026.485	0	0.000	0
20080222 19:50	8.8	7.3	8.8	69	3.5	10	19	247	0.00	1026.587	0	0.000	0
20080222 19:55	8.8	7.6	8.8	69	3.5	8	14	247	0.00	1026.688	0	0.000	0
20080222 20:00	8.8	7.6	8.8	69	3.5	8	19	247	0.00	1026.654	0	0.040	0
20080222 20:05	8.8	7.6	8.8	69	3.4	8	11	247	0.00	1026.756	0	0.000	0
20080222 20:10	8.8	7.6	8.8	70	3.6	8	14	247	0.00	1026.790	0	0.000	0
20080222 20:15	8.7	7.9	8.7	70	3.6	6	14	247	0.00	1026.824	0	0.000	0
20080222 20:20	8.7	7.5	8.7	70	3.6	8	19	247	0.00	1026.790	0	0.000	0
20080222 20:25	8.7	7.4	8.7	70	3.5	8	18	247	0.00	1026.722	0	0.000	0
20080222 20:30	8.7	7.1	8.7	70	3.5	10	21	247	0.00	1026.790	0	0.000	0
20080222 20:35	8.7	7.1	8.7	70	3.5	10	23	247	0.00	1026.756	0	0.000	0
20080222 20:40	8.7	7.2	8.7	70	3.6	10	16	247	0.00	1026.722	0	0.000	0
20080222 20:45	8.8	7.2	8.8	70	3.6	10	16	247	0.00	1026.891	0	0.000	0
20080222 20:50	8.8	7.6	8.8	70	3.6	8	19	247	0.00	1026.993	0	0.000	0
20080222 20:55	8.8	7.2	8.8	70	3.6	10	18	247	0.00	1026.959	0	0.000	0
20080222 21:00	8.8	7.6	8.8	70	3.6	8	18	247	0.00	1026.925	0	0.040	0
20080222 21:05	8.8	7.0	8.8	70	3.7	11	21	247	0.00	1026.756	0	0.000	0
20080222 21:10	8.9	7.4	8.9	70	3.7	10	18	247	0.00	1026.790	0	0.000	0
20080222 21:15	8.9	7.1	8.9	69	3.5	11	24	247	0.00	1026.858	0	0.000	0
20080222 21:20	8.9	7.4	8.9	70	3.7	10	23	247	0.00	1026.824	0	0.000	0
20080222 21:25	8.8	7.0	8.8	70	3.7	11	21	247	0.00	1026.925	0	0.000	0
20080222 21:30	8.8	7.3	8.8	70	3.7	10	19	247	0.00	1026.993	0	0.000	0
20080222 21:35	8.8	7.0	8.8	70	3.7	11	23	247	0.00	1027.128	0	0.000	0
20080222 21:40	8.8	7.3	8.8	70	3.7	10	19	247	0.00	1027.196	0	0.000	0
20080222 21:45	8.8	7.0	8.8	70	3.7	11	21	247	0.00	1027.162	0	0.000	0
20080222 21:50	8.8	7.3	8.8	70	3.7	10	19	247	0.00	1027.162	0	0.000	0
20080222 21:55	8.8	7.2	8.8	71	3.8	10	18	247	0.00	1027.196	0	0.000	0
20080222 22:00	8.8	7.2	8.8	71	3.8	10	19	247	0.00	1027.196	0	0.040	0
20080222 22:05	8.7	7.2	8.7	71	3.8	10	19	247	0.00	1027.027	0	0.000	0
20080222 22:10	8.8	7.0	8.8	71	3.8	11	23	247	0.00	1027.027	0	0.000	0
20080222 22:15	8.8	7.0	8.8	72	4.0	11	21	247	0.00	1027.027	0	0.000	0
20080222 22:20	8.7	6.9	8.7	72	4.0	11	21	247	0.00	1027.095	0	0.000	0
20080222 22:25	8.7	6.6	8.7	72	4.0	13	24	247	0.00	1027.162	0	0.000	0
20080222 22:30	8.7	6.9	8.7	71	3.8	11	19	247	0.00	1027.162	0	0.000	0
20080222 22:35	8.8	7.2	8.8	71	3.8	10	21	247	0.00	1027.196	0	0.000	0
20080222 22:40	8.8	7.0	8.8	71	3.8	11	24	247	0.00	1027.298	0	0.000	0
20080222 22:45	8.8	6.8	8.8	70	3.7	13	21	247	0.00	1027.332	0	0.000	0
20080222 22:50	8.9	7.1	8.9	70	3.7	11	19	247	0.00	1027.399	0	0.000	0
20080222 22:55	8.8	7.3	8.8	70	3.7	10	18	247	0.00	1027.365	0	0.000	0
20080222 23:00	8.8	7.2	8.8	71	3.8	10	23	247	0.00	1027.264	0	0.040	0
20080222 23:05	8.8	7.0	8.8	70	3.6	11	21	247	0.00	1027.128	0	0.000	0
20080222 23:10	8.8	7.0	8.8	70	3.6	11	19	247	0.00	1027.230	0	0.000	0
20080222 23:15	8.8	7.0	8.8	70	3.6	11	19	247	0.00	1027.128	0	0.000	0
20080222 23:20	8.7	7.2	8.7	70	3.6	10	19	247	0.00	1027.095	0	0.000	0
20080222 23:25	8.7	6.6	8.7	70	3.6	13	23	247	0.00	1027.095	0	0.000	0
20080222 23:30	8.8	6.7	8.8	70	3.6	13	29	247	0.00	1027.027	0	0.000	0
20080222 23:35	8.8	7.0	8.8	70	3.6	11	23	247	0.00	1027.061	0	0.000	0
20080222 23:40	8.7	7.2	8.7	70	3.6	10	18	247	0.00	1026.993	0	0.000	0
20080222 23:45	8.7	7.1	8.7	70	3.5	10	21	247	0.00	1027.061	0	0.000	0
20080222 23:50	8.6	7.1	8.6	71	3.7	10	24	225	0.00	1027.061	0	0.000	0
20080222 23:55	8.6	6.8	8.6	70	3.4	11	26	247	0.00	1027.095	0	0.000	0
20080222 24:00	8.6	7.0	8.6	71	3.6	10	19	247	0.00	1027.196	0	0.000	0



Please note the license to use and transfer of this data:
http://creativecommons.org/licenses/by-nc-sa/3.0/deed.en

Bitte beachten sie die Lizenz zur Verwertung und Weitergabe der Daten:
http://creativecommons.org/licenses/by-nc-sa/3.0/deed.de

zurück zur Übersicht der Archivdaten (Monats und Tagesdaten)

Cookies helfen bei der Bereitstellung von Inhalten. Durch die Nutzung dieser Seiten erklärst du dich damit einverstanden, dass Cookies auf deinem Rechner gespeichert werden. Weitere Information